createdAt,value
2023-04-10T00:00:42.215Z,6.55
2023-04-10T00:01:42.354Z,6.67
2023-04-10T00:02:42.499Z,6.83
2023-04-10T00:03:42.440Z,6.40
2023-04-10T00:04:42.534Z,6.28
2023-04-10T00:05:42.517Z,6.15
2023-04-10T00:06:42.553Z,5.98
2023-04-10T00:07:42.632Z,5.85
2023-04-10T00:08:42.675Z,5.98
2023-04-10T00:09:42.761Z,5.91
2023-04-10T00:10:42.871Z,5.77
2023-04-10T00:11:42.878Z,5.65
2023-04-10T00:12:42.921Z,5.82
2023-04-10T00:13:42.979Z,5.80
2023-04-10T00:14:43.026Z,5.82
2023-04-10T00:15:43.100Z,5.54
2023-04-10T00:16:43.206Z,5.80
2023-04-10T00:17:43.244Z,5.60
2023-04-10T00:18:43.291Z,5.62
2023-04-10T00:19:43.341Z,5.76
2023-04-10T00:20:43.415Z,5.98
2023-04-10T00:21:43.469Z,5.69
2023-04-10T00:22:43.520Z,5.70
2023-04-10T00:23:43.601Z,5.39
2023-04-10T00:24:43.657Z,5.43
2023-04-10T00:25:43.691Z,5.46
2023-04-10T00:26:43.755Z,5.33
2023-04-10T00:27:43.813Z,5.47
2023-04-10T00:28:43.874Z,5.82
2023-04-10T00:29:43.943Z,5.87
2023-04-10T00:30:44.018Z,6.00
2023-04-10T00:31:44.105Z,5.90
2023-04-10T00:32:44.161Z,5.83
2023-04-10T00:33:44.162Z,5.77
2023-04-10T00:34:44.230Z,5.66
2023-04-10T00:35:44.335Z,5.51
2023-04-10T00:36:44.336Z,5.60
2023-04-10T00:37:44.404Z,5.79
2023-04-10T00:38:44.445Z,5.63
2023-04-10T00:39:44.495Z,5.46
2023-04-10T00:40:44.574Z,5.16
2023-04-10T00:41:44.636Z,5.29
2023-04-10T00:42:44.698Z,5.07
2023-04-10T00:43:44.749Z,5.00
2023-04-10T00:44:44.821Z,5.29
2023-04-10T00:45:44.881Z,5.21
2023-04-10T00:46:44.932Z,5.34
2023-04-10T00:47:45.015Z,5.61
2023-04-10T00:48:45.036Z,6.08
2023-04-10T00:49:45.061Z,6.42
2023-04-10T00:50:45.128Z,6.38
2023-04-10T00:51:45.199Z,6.30
2023-04-10T00:52:45.252Z,6.21
2023-04-10T00:53:45.322Z,5.84
2023-04-10T00:54:45.337Z,5.59
2023-04-10T00:55:45.396Z,5.25
2023-04-10T00:56:45.440Z,4.89
2023-04-10T00:57:45.483Z,5.00
2023-04-10T00:58:45.546Z,4.88
2023-04-10T00:59:45.568Z,4.78
2023-04-10T01:00:45.606Z,4.85
2023-04-10T01:01:45.688Z,4.74
2023-04-10T01:02:45.851Z,4.33
2023-04-10T01:03:45.804Z,4.37
2023-04-10T01:04:45.754Z,4.47
2023-04-10T01:05:45.760Z,4.73
2023-04-10T01:06:45.782Z,4.70
2023-04-10T01:07:45.819Z,4.46
2023-04-10T01:08:45.841Z,4.52
2023-04-10T01:09:45.884Z,4.73
2023-04-10T01:10:45.913Z,4.98
2023-04-10T01:11:45.954Z,4.97
2023-04-10T01:12:45.970Z,4.76
2023-04-10T01:13:45.999Z,4.85
2023-04-10T01:14:46.042Z,4.64
2023-04-10T01:15:46.045Z,4.33
2023-04-10T01:16:46.087Z,4.33
2023-04-10T01:17:46.139Z,4.58
2023-04-10T01:18:46.134Z,4.32
2023-04-10T01:19:46.171Z,4.29
2023-04-10T01:20:46.210Z,4.51
2023-04-10T01:21:46.257Z,4.85
2023-04-10T01:22:46.293Z,4.82
2023-04-10T01:23:46.315Z,4.69
2023-04-10T01:24:46.416Z,4.38
2023-04-10T01:25:46.386Z,4.42
2023-04-10T01:26:46.416Z,4.59
2023-04-10T01:27:46.450Z,4.57
2023-04-10T01:28:46.477Z,4.16
2023-04-10T01:29:46.484Z,3.85
2023-04-10T01:30:46.543Z,3.70
2023-04-10T01:31:46.533Z,4.04
2023-04-10T01:32:46.553Z,4.06
2023-04-10T01:33:46.550Z,3.77
2023-04-10T01:34:46.565Z,4.00
2023-04-10T01:35:46.611Z,3.74
2023-04-10T01:36:46.631Z,3.90
2023-04-10T01:37:46.621Z,3.84
2023-04-10T01:38:46.667Z,4.05
2023-04-10T01:39:46.663Z,4.02
2023-04-10T01:40:46.678Z,3.87
2023-04-10T01:41:46.699Z,3.96
2023-04-10T01:42:46.735Z,3.88
2023-04-10T01:43:46.746Z,3.80
2023-04-10T01:44:46.760Z,3.64
2023-04-10T01:45:46.788Z,3.85
2023-04-10T01:46:46.828Z,3.70
2023-04-10T01:47:46.879Z,3.76
2023-04-10T01:48:46.824Z,3.76
2023-04-10T01:49:46.835Z,4.02
2023-04-10T01:50:46.861Z,3.85
2023-04-10T01:51:46.908Z,3.76
2023-04-10T01:52:46.907Z,3.95
2023-04-10T01:53:46.948Z,4.07
2023-04-10T01:54:46.970Z,4.02
2023-04-10T01:55:47.027Z,3.93
2023-04-10T01:56:47.068Z,4.12
2023-04-10T01:57:47.111Z,4.06
2023-04-10T01:58:47.105Z,4.29
2023-04-10T01:59:47.130Z,4.46
2023-04-10T02:00:47.158Z,4.40
2023-04-10T02:01:47.263Z,4.41
2023-04-10T02:02:47.347Z,4.56
2023-04-10T02:03:47.361Z,4.46
2023-04-10T02:04:47.270Z,4.30
2023-04-10T02:05:47.214Z,4.32
2023-04-10T02:06:47.226Z,4.06
2023-04-10T02:07:47.244Z,3.90
2023-04-10T02:08:47.256Z,3.92
2023-04-10T02:09:47.297Z,3.85
2023-04-10T02:10:47.314Z,3.99
2023-04-10T02:11:47.362Z,3.94
2023-04-10T02:12:47.356Z,3.87
2023-04-10T02:13:47.341Z,3.72
2023-04-10T02:14:47.345Z,3.81
2023-04-10T02:15:47.494Z,3.86
2023-04-10T02:16:47.364Z,3.93
2023-04-10T02:17:47.413Z,3.80
2023-04-10T02:18:47.354Z,3.66
2023-04-10T02:19:47.356Z,3.61
2023-04-10T02:20:47.373Z,3.61
2023-04-10T02:21:47.398Z,3.77
2023-04-10T02:22:47.453Z,3.71
2023-04-10T02:23:47.419Z,3.63
2023-04-10T02:24:47.426Z,3.74
2023-04-10T02:25:47.456Z,3.84
2023-04-10T02:26:47.428Z,3.46
2023-04-10T02:27:47.451Z,3.53
2023-04-10T02:28:47.427Z,3.42
2023-04-10T02:29:47.418Z,3.97
2023-04-10T02:30:47.434Z,4.71
2023-04-10T02:31:47.534Z,4.94
2023-04-10T02:32:47.415Z,4.88
2023-04-10T02:33:47.401Z,5.08
2023-04-10T02:34:47.400Z,5.00
2023-04-10T02:35:47.471Z,4.39
2023-04-10T02:36:47.408Z,5.09
2023-04-10T02:37:47.417Z,5.51
2023-04-10T02:38:47.387Z,5.54
2023-04-10T02:39:47.407Z,5.28
2023-04-10T02:40:47.402Z,4.84
2023-04-10T02:41:47.399Z,4.55
2023-04-10T02:42:47.388Z,4.15
2023-04-10T02:43:47.384Z,4.21
2023-04-10T02:44:47.395Z,4.27
2023-04-10T02:45:47.391Z,4.27
2023-04-10T02:46:47.390Z,3.85
2023-04-10T02:47:47.418Z,3.44
2023-04-10T02:48:47.357Z,3.44
2023-04-10T02:49:47.372Z,3.71
2023-04-10T02:50:47.357Z,3.65
2023-04-10T02:51:47.387Z,4.01
2023-04-10T02:52:47.380Z,3.90
2023-04-10T02:53:47.370Z,3.82
2023-04-10T02:54:47.376Z,3.84
2023-04-10T02:55:47.382Z,3.87
2023-04-10T02:56:47.389Z,3.88
2023-04-10T02:57:47.385Z,3.96
2023-04-10T02:58:47.383Z,4.17
2023-04-10T02:59:47.388Z,4.35
2023-04-10T03:00:47.397Z,4.07
2023-04-10T03:01:47.494Z,4.20
2023-04-10T03:02:47.481Z,4.23
2023-04-10T03:03:47.427Z,4.35
2023-04-10T03:04:47.433Z,4.31
2023-04-10T03:05:47.372Z,4.42
2023-04-10T03:06:47.397Z,4.33
2023-04-10T03:07:47.371Z,4.40
2023-04-10T03:08:47.375Z,4.35
2023-04-10T03:09:47.375Z,4.46
2023-04-10T03:10:47.361Z,4.28
2023-04-10T03:11:47.371Z,4.44
2023-04-10T03:12:47.347Z,4.56
2023-04-10T03:13:47.353Z,4.63
2023-04-10T03:14:47.395Z,4.77
2023-04-10T03:15:47.386Z,4.83
2023-04-10T03:16:47.417Z,4.96
2023-04-10T03:17:47.500Z,4.94
2023-04-10T03:18:47.423Z,4.92
2023-04-10T03:19:47.444Z,4.66
2023-04-10T03:20:47.452Z,4.91
2023-04-10T03:21:47.466Z,4.59
2023-04-10T03:22:47.461Z,4.77
2023-04-10T03:23:47.465Z,4.67
2023-04-10T03:24:47.476Z,4.57
2023-04-10T03:25:47.473Z,4.84
2023-04-10T03:26:47.496Z,4.82
2023-04-10T03:27:47.490Z,4.80
2023-04-10T03:28:47.498Z,4.79
2023-04-10T03:29:47.507Z,4.96
2023-04-10T03:30:47.541Z,5.01
2023-04-10T03:31:47.601Z,5.05
2023-04-10T03:32:47.534Z,5.00
2023-04-10T03:33:47.570Z,5.03
2023-04-10T03:34:47.567Z,4.93
2023-04-10T03:35:47.650Z,4.90
2023-04-10T03:36:47.581Z,4.90
2023-04-10T03:37:47.597Z,4.84
2023-04-10T03:38:47.596Z,4.84
2023-04-10T03:39:47.624Z,4.87
2023-04-10T03:40:47.623Z,4.91
2023-04-10T03:41:47.630Z,4.97
2023-04-10T03:42:47.619Z,5.01
2023-04-10T03:43:47.639Z,5.04
2023-04-10T03:44:47.691Z,5.03
2023-04-10T03:45:47.678Z,5.05
2023-04-10T03:46:47.727Z,4.99
2023-04-10T03:47:47.683Z,4.93
2023-04-10T03:48:47.657Z,5.03
2023-04-10T03:49:47.639Z,4.94
2023-04-10T03:50:47.675Z,4.79
2023-04-10T03:51:47.658Z,4.82
2023-04-10T03:52:47.674Z,4.98
2023-04-10T03:53:47.687Z,4.94
2023-04-10T03:54:47.711Z,4.80
2023-04-10T03:55:47.722Z,4.94
2023-04-10T03:56:47.722Z,4.96
2023-04-10T03:57:47.730Z,4.86
2023-04-10T03:58:47.740Z,5.07
2023-04-10T03:59:47.772Z,4.92
2023-04-10T04:00:47.800Z,5.06
2023-04-10T04:01:47.906Z,5.04
2023-04-10T04:02:48.003Z,5.15
2023-04-10T04:03:47.978Z,5.06
2023-04-10T04:04:47.980Z,5.11
2023-04-10T04:05:47.963Z,5.14
2023-04-10T04:06:47.968Z,5.05
2023-04-10T04:07:47.978Z,4.95
2023-04-10T04:08:47.992Z,4.91
2023-04-10T04:09:48.025Z,4.93
2023-04-10T04:10:48.065Z,5.00
2023-04-10T04:11:48.073Z,4.80
2023-04-10T04:12:48.101Z,4.89
2023-04-10T04:13:48.161Z,5.05
2023-04-10T04:14:48.170Z,5.06
2023-04-10T04:15:48.169Z,5.07
2023-04-10T04:16:48.209Z,4.97
2023-04-10T04:17:48.268Z,4.79
2023-04-10T04:18:48.217Z,5.00
2023-04-10T04:19:48.235Z,4.88
2023-04-10T04:20:48.245Z,4.88
2023-04-10T04:21:48.253Z,4.98
2023-04-10T04:22:48.257Z,5.08
2023-04-10T04:23:48.288Z,5.09
2023-04-10T04:24:48.296Z,4.94
2023-04-10T04:25:48.289Z,5.06
2023-04-10T04:26:48.325Z,5.00
2023-04-10T04:27:48.347Z,5.05
2023-04-10T04:28:48.314Z,5.02
2023-04-10T04:29:48.315Z,5.00
2023-04-10T04:30:48.337Z,5.02
2023-04-10T04:31:48.419Z,4.82
2023-04-10T04:32:48.378Z,4.95
2023-04-10T04:33:48.349Z,4.91
2023-04-10T04:34:48.352Z,4.93
2023-04-10T04:35:48.413Z,4.84
2023-04-10T04:36:48.380Z,4.80
2023-04-10T04:37:48.421Z,4.84
2023-04-10T04:38:48.419Z,4.88
2023-04-10T04:39:48.441Z,4.82
2023-04-10T04:40:48.482Z,4.85
2023-04-10T04:41:48.494Z,4.94
2023-04-10T04:42:48.548Z,5.00
2023-04-10T04:43:48.564Z,4.95
2023-04-10T04:44:48.580Z,5.02
2023-04-10T04:45:48.702Z,5.02
2023-04-10T04:46:48.634Z,5.06
2023-04-10T04:47:48.692Z,4.88
2023-04-10T04:48:48.682Z,4.96
2023-04-10T04:49:48.721Z,4.82
2023-04-10T04:50:48.726Z,4.95
2023-04-10T04:51:48.759Z,5.00
2023-04-10T04:52:48.778Z,4.99
2023-04-10T04:53:48.804Z,4.93
2023-04-10T04:54:48.820Z,4.96
2023-04-10T04:55:48.826Z,5.07
2023-04-10T04:56:48.840Z,5.14
2023-04-10T04:57:48.860Z,5.12
2023-04-10T04:58:48.887Z,5.10
2023-04-10T04:59:48.941Z,5.19
2023-04-10T05:00:48.936Z,5.21
2023-04-10T05:01:49.049Z,5.23
2023-04-10T05:02:49.113Z,5.29
2023-04-10T05:03:49.126Z,5.26
2023-04-10T05:04:49.064Z,5.20
2023-04-10T05:05:49.071Z,5.33
2023-04-10T05:06:49.124Z,5.32
2023-04-10T05:07:49.129Z,5.27
2023-04-10T05:08:49.171Z,5.33
2023-04-10T05:09:49.193Z,5.34
2023-04-10T05:10:49.211Z,5.36
2023-04-10T05:11:49.253Z,5.35
2023-04-10T05:12:49.276Z,5.40
2023-04-10T05:13:49.295Z,5.37
2023-04-10T05:14:49.294Z,5.38
2023-04-10T05:15:49.427Z,5.31
2023-04-10T05:16:49.391Z,5.28
2023-04-10T05:17:49.447Z,5.18
2023-04-10T05:18:49.491Z,5.05
2023-04-10T05:19:49.487Z,5.07
2023-04-10T05:20:49.546Z,5.12
2023-04-10T05:21:49.574Z,5.03
2023-04-10T05:22:49.680Z,4.96
2023-04-10T05:23:49.703Z,5.07
2023-04-10T05:24:49.766Z,5.04
2023-04-10T05:25:49.815Z,5.02
2023-04-10T05:26:49.883Z,5.03
2023-04-10T05:27:49.942Z,5.04
2023-04-10T05:28:49.999Z,5.06
2023-04-10T05:29:50.072Z,5.03
2023-04-10T05:30:50.158Z,5.07
2023-04-10T05:31:51.065Z,5.00
2023-04-10T05:32:50.412Z,4.88
2023-04-10T05:33:50.434Z,4.79
2023-04-10T05:34:50.484Z,4.76
2023-04-10T05:35:50.564Z,4.66
2023-04-10T05:36:50.516Z,4.72
2023-04-10T05:37:50.565Z,4.47
2023-04-10T05:38:50.598Z,4.00
2023-04-10T05:39:50.598Z,3.98
2023-04-10T05:40:50.650Z,3.65
2023-04-10T05:41:50.705Z,3.69
2023-04-10T05:42:50.750Z,3.64
2023-04-10T05:43:50.757Z,3.57
2023-04-10T05:44:50.798Z,3.56
2023-04-10T05:45:50.841Z,3.49
2023-04-10T05:46:50.941Z,3.46
2023-04-10T05:47:50.991Z,3.71
2023-04-10T05:48:50.927Z,3.96
2023-04-10T05:49:50.962Z,3.95
2023-04-10T05:50:50.994Z,3.96
2023-04-10T05:51:51.058Z,3.91
2023-04-10T05:52:51.104Z,3.87
2023-04-10T05:53:51.164Z,3.90
2023-04-10T05:54:51.228Z,3.81
2023-04-10T05:55:51.394Z,3.74
2023-04-10T05:56:51.364Z,3.63
2023-04-10T05:57:51.438Z,3.67
2023-04-10T05:58:51.582Z,3.70
2023-04-10T05:59:51.606Z,3.64
2023-04-10T06:00:51.593Z,3.72
2023-04-10T06:01:51.735Z,3.63
2023-04-10T06:02:51.792Z,3.77
2023-04-10T06:03:51.910Z,3.71
2023-04-10T06:04:51.913Z,3.62
2023-04-10T06:05:51.866Z,3.72
2023-04-10T06:06:51.918Z,3.95
2023-04-10T06:07:51.972Z,3.88
2023-04-10T06:08:52.184Z,3.93
2023-04-10T06:09:52.109Z,4.16
2023-04-10T06:10:52.165Z,4.27
2023-04-10T06:11:52.221Z,4.36
2023-04-10T06:12:52.282Z,4.48
2023-04-10T06:13:52.330Z,4.73
2023-04-10T06:14:52.391Z,4.91
2023-04-10T06:15:52.441Z,5.05
2023-04-10T06:16:52.457Z,5.01
2023-04-10T06:17:52.574Z,5.16
2023-04-10T06:18:52.978Z,5.20
2023-04-10T06:19:52.586Z,5.49
2023-04-10T06:20:52.627Z,5.40
2023-04-10T06:21:54.528Z,5.57
2023-04-10T06:22:52.723Z,5.70
2023-04-10T06:23:52.961Z,5.76
2023-04-10T06:24:52.767Z,5.83
2023-04-10T06:25:52.791Z,5.71
2023-04-10T06:26:52.798Z,5.82
2023-04-10T06:27:52.845Z,5.92
2023-04-10T06:28:53.073Z,5.90
2023-04-10T06:29:52.873Z,5.96
2023-04-10T06:30:52.867Z,6.22
2023-04-10T06:31:52.981Z,6.17
2023-04-10T06:32:53.169Z,6.13
2023-04-10T06:33:52.939Z,6.01
2023-04-10T06:34:52.928Z,6.19
2023-04-10T06:35:53.009Z,6.20
2023-04-10T06:36:52.951Z,6.34
2023-04-10T06:37:52.955Z,6.27
2023-04-10T06:38:53.106Z,6.38
2023-04-10T06:39:52.958Z,6.40
2023-04-10T06:40:52.960Z,6.40
2023-04-10T06:41:52.965Z,6.39
2023-04-10T06:42:52.992Z,6.54
2023-04-10T06:43:53.070Z,6.41
2023-04-10T06:44:52.989Z,6.47
2023-04-10T06:45:53.004Z,6.49
2023-04-10T06:46:53.109Z,6.51
2023-04-10T06:47:53.102Z,6.53
2023-04-10T06:48:53.328Z,6.50
2023-04-10T06:49:53.212Z,6.48
2023-04-10T06:50:53.255Z,6.44
2023-04-10T06:51:53.338Z,6.48
2023-04-10T06:52:53.391Z,6.45
2023-04-10T06:53:53.452Z,6.39
2023-04-10T06:54:53.506Z,6.44
2023-04-10T06:55:53.582Z,6.36
2023-04-10T06:56:53.638Z,6.39
2023-04-10T06:57:53.692Z,6.25
2023-04-10T06:58:53.868Z,6.23
2023-04-10T06:59:53.782Z,6.21
2023-04-10T07:00:53.949Z,6.18
2023-04-10T07:01:53.931Z,6.21
2023-04-10T07:02:53.995Z,6.05
2023-04-10T07:03:54.052Z,6.10
2023-04-10T07:04:54.011Z,6.00
2023-04-10T07:05:54.077Z,5.93
2023-04-10T07:06:54.113Z,5.98
2023-04-10T07:07:54.165Z,5.79
2023-04-10T07:08:54.442Z,5.74
2023-04-10T07:09:54.235Z,5.69
2023-04-10T07:10:54.946Z,5.70
2023-04-10T07:11:54.310Z,5.49
2023-04-10T07:12:54.337Z,5.50
2023-04-10T07:13:54.368Z,5.46
2023-04-10T07:14:54.451Z,5.27
2023-04-10T07:15:54.476Z,5.21
2023-04-10T07:16:54.448Z,5.11
2023-04-10T07:17:54.536Z,5.07
2023-04-10T07:18:54.658Z,4.95
2023-04-10T07:19:54.535Z,4.87
2023-04-10T07:20:54.577Z,4.79
2023-04-10T07:21:54.605Z,4.75
2023-04-10T07:22:54.620Z,4.71
2023-04-10T07:23:54.631Z,4.62
2023-04-10T07:24:54.643Z,4.50
2023-04-10T07:25:54.662Z,4.46
2023-04-10T07:26:54.694Z,4.39
2023-04-10T07:27:54.717Z,4.32
2023-04-10T07:28:55.075Z,4.33
2023-04-10T07:29:54.719Z,4.34
2023-04-10T07:30:54.740Z,4.32
2023-04-10T07:31:54.825Z,4.28
2023-04-10T07:32:54.981Z,4.10
2023-04-10T07:33:54.768Z,4.14
2023-04-10T07:34:54.774Z,4.05
2023-04-10T07:35:54.780Z,3.96
2023-04-10T07:36:54.782Z,3.98
2023-04-10T07:37:54.784Z,3.94
2023-04-10T07:38:54.992Z,3.87
2023-04-10T07:39:54.794Z,3.92
2023-04-10T07:40:54.768Z,3.82
2023-04-10T07:41:54.936Z,3.72
2023-04-10T07:42:54.760Z,3.92
2023-04-10T07:43:54.784Z,3.78
2023-04-10T07:44:54.781Z,3.78
2023-04-10T07:45:54.854Z,3.65
2023-04-10T07:46:54.806Z,3.68
2023-04-10T07:47:54.898Z,3.70
2023-04-10T07:48:55.444Z,3.56
2023-04-10T07:49:54.866Z,3.48
2023-04-10T07:50:54.869Z,3.47
2023-04-10T07:51:54.887Z,3.52
2023-04-10T07:52:54.912Z,3.58
2023-04-10T07:53:54.930Z,3.49
2023-04-10T07:54:54.915Z,3.32
2023-04-10T07:55:54.937Z,3.36
2023-04-10T07:56:54.936Z,3.23
2023-04-10T07:57:54.954Z,3.28
2023-04-10T07:58:55.177Z,3.25
2023-04-10T07:59:54.952Z,3.10
2023-04-10T08:00:54.941Z,3.06
2023-04-10T08:01:55.068Z,3.09
2023-04-10T08:02:55.266Z,3.05
2023-04-10T08:03:55.128Z,2.93
2023-04-10T08:04:55.466Z,3.00
2023-04-10T08:05:55.127Z,2.75
2023-04-10T08:06:55.178Z,2.79
2023-04-10T08:07:55.217Z,2.86
2023-04-10T08:08:55.447Z,2.76
2023-04-10T08:09:55.341Z,2.67
2023-04-10T08:10:55.401Z,2.58
2023-04-10T08:11:55.481Z,2.74
2023-04-10T08:12:55.536Z,2.72
2023-04-10T08:13:55.555Z,2.70
2023-04-10T08:14:55.540Z,2.81
2023-04-10T08:15:55.535Z,2.90
2023-04-10T08:16:55.577Z,2.80
2023-04-10T08:17:55.602Z,2.90
2023-04-10T08:18:55.856Z,2.82
2023-04-10T08:19:55.619Z,2.80
2023-04-10T08:20:55.632Z,2.90
2023-04-10T08:21:55.637Z,2.87
2023-04-10T08:22:58.903Z,2.92
2023-04-10T08:23:56.642Z,2.92
2023-04-10T08:24:55.643Z,2.87
2023-04-10T08:25:55.617Z,2.90
2023-04-10T08:26:55.618Z,2.87
2023-04-10T08:27:55.634Z,2.89
2023-04-10T08:28:55.814Z,2.98
2023-04-10T08:29:55.592Z,2.99
2023-04-10T08:30:55.626Z,2.84
2023-04-10T08:31:55.615Z,2.72
2023-04-10T08:32:55.609Z,2.99
2023-04-10T08:33:55.803Z,2.84
2023-04-10T08:34:55.560Z,2.99
2023-04-10T08:35:55.579Z,2.90
2023-04-10T08:36:55.548Z,2.81
2023-04-10T08:38:11.748Z,2.80
2023-04-10T08:38:56.568Z,2.80
2023-04-10T08:39:55.531Z,2.75
2023-04-10T08:40:55.548Z,2.79
2023-04-10T08:41:55.538Z,2.81
2023-04-10T08:42:55.529Z,2.86
2023-04-10T08:43:55.746Z,2.74
2023-04-10T08:44:55.504Z,2.72
2023-04-10T08:45:55.561Z,2.86
2023-04-10T08:46:55.488Z,2.84
2023-04-10T08:47:55.502Z,2.84
2023-04-10T08:48:55.539Z,2.73
2023-04-10T08:49:55.508Z,2.78
2023-04-10T08:50:55.558Z,2.76
2023-04-10T08:51:55.611Z,2.85
2023-04-10T08:52:55.679Z,2.79
2023-04-10T08:53:55.963Z,2.86
2023-04-10T08:54:55.770Z,2.92
2023-04-10T08:55:55.842Z,3.01
2023-04-10T08:56:55.920Z,3.17
2023-04-10T08:58:00.927Z,3.13
2023-04-10T08:58:56.954Z,3.09
2023-04-10T08:59:55.938Z,3.13
2023-04-10T09:00:55.936Z,3.11
2023-04-10T09:01:56.021Z,3.06
2023-04-10T09:02:55.959Z,3.05
2023-04-10T09:03:56.365Z,3.12
2023-04-10T09:04:55.923Z,3.06
2023-04-10T09:05:55.892Z,2.92
2023-04-10T09:06:55.917Z,2.94
2023-04-10T09:07:55.986Z,3.03
2023-04-10T09:08:56.074Z,2.93
2023-04-10T09:09:56.116Z,2.90
2023-04-10T09:10:56.460Z,2.98
2023-04-10T09:11:56.292Z,2.91
2023-04-10T09:12:56.303Z,2.91
2023-04-10T09:13:56.592Z,2.83
2023-04-10T09:14:56.443Z,3.00
2023-04-10T09:15:56.530Z,2.91
2023-04-10T09:16:56.524Z,2.84
2023-04-10T09:17:56.674Z,2.83
2023-04-10T09:18:56.650Z,2.77
2023-04-10T09:19:56.711Z,2.56
2023-04-10T09:20:56.789Z,2.68
2023-04-10T09:21:56.842Z,2.65
2023-04-10T09:22:56.874Z,2.69
2023-04-10T09:23:56.926Z,2.75
2023-04-10T09:24:56.955Z,2.68
2023-04-10T09:25:56.997Z,2.69
2023-04-10T09:26:57.050Z,2.55
2023-04-10T09:27:57.095Z,2.64
2023-04-10T09:28:57.109Z,2.60
2023-04-10T09:29:57.101Z,2.46
2023-04-10T09:30:57.151Z,2.51
2023-04-10T09:31:57.136Z,2.34
2023-04-10T09:32:57.208Z,2.38
2023-04-10T09:33:57.160Z,2.33
2023-04-10T09:34:57.177Z,2.20
2023-04-10T09:35:57.165Z,2.41
2023-04-10T09:36:57.154Z,2.30
2023-04-10T09:37:57.137Z,2.24
2023-04-10T09:38:57.172Z,2.24
2023-04-10T09:39:57.131Z,2.21
2023-04-10T09:40:57.124Z,2.13
2023-04-10T09:41:57.158Z,2.11
2023-04-10T09:42:57.140Z,2.02
2023-04-10T09:43:57.324Z,2.08
2023-04-10T09:44:57.107Z,2.02
2023-04-10T09:45:57.133Z,2.09
2023-04-10T09:46:57.171Z,2.12
2023-04-10T09:47:57.138Z,2.08
2023-04-10T09:48:57.139Z,2.20
2023-04-10T09:49:57.118Z,2.02
2023-04-10T09:50:57.121Z,2.02
2023-04-10T09:51:57.124Z,2.05
2023-04-10T09:52:57.129Z,1.90
2023-04-10T09:53:57.156Z,1.99
2023-04-10T09:54:57.099Z,1.95
2023-04-10T09:55:57.126Z,1.79
2023-04-10T09:56:57.122Z,1.84
2023-04-10T09:57:57.104Z,1.78
2023-04-10T09:58:57.110Z,1.72
2023-04-10T09:59:57.105Z,1.75
2023-04-10T10:00:57.110Z,1.72
2023-04-10T10:01:57.198Z,1.75
2023-04-10T10:02:57.224Z,1.92
2023-04-10T10:03:57.180Z,1.79
2023-04-10T10:04:57.202Z,1.75
2023-04-10T10:05:57.118Z,1.78
2023-04-10T10:06:57.144Z,1.76
2023-04-10T10:07:57.144Z,1.78
2023-04-10T10:08:57.316Z,1.78
2023-04-10T10:09:57.164Z,1.77
2023-04-10T10:10:57.180Z,1.72
2023-04-10T10:11:57.204Z,1.73
2023-04-10T10:12:57.194Z,1.71
2023-04-10T10:13:57.265Z,1.70
2023-04-10T10:14:57.233Z,1.66
2023-04-10T10:15:57.265Z,1.63
2023-04-10T10:16:57.240Z,1.65
2023-04-10T10:17:57.315Z,1.64
2023-04-10T10:18:57.616Z,1.60
2023-04-10T10:19:57.292Z,1.66
2023-04-10T10:20:57.312Z,1.64
2023-04-10T10:21:57.328Z,1.62
2023-04-10T10:22:57.330Z,1.52
2023-04-10T10:23:57.357Z,1.52
2023-04-10T10:24:57.388Z,1.55
2023-04-10T10:25:57.383Z,1.62
2023-04-10T10:26:57.431Z,1.53
2023-04-10T10:27:57.443Z,1.55
2023-04-10T10:28:57.812Z,1.56
2023-04-10T10:29:57.492Z,1.51
2023-04-10T10:30:57.518Z,1.44
2023-04-10T10:31:57.590Z,1.47
2023-04-10T10:32:57.649Z,1.49
2023-04-10T10:33:57.589Z,1.53
2023-04-10T10:34:57.620Z,1.56
2023-04-10T10:35:57.669Z,1.52
2023-04-10T10:36:57.704Z,1.50
2023-04-10T10:37:57.691Z,1.44
2023-04-10T10:38:57.702Z,1.46
2023-04-10T10:39:57.732Z,1.48
2023-04-10T10:40:57.739Z,1.48
2023-04-10T10:41:57.792Z,1.47
2023-04-10T10:42:57.817Z,1.49
2023-04-10T10:43:57.840Z,1.45
2023-04-10T10:44:59.438Z,1.46
2023-04-10T10:45:57.974Z,1.47
2023-04-10T10:46:57.937Z,1.46
2023-04-10T10:47:57.990Z,1.44
2023-04-10T10:48:57.995Z,1.43
2023-04-10T10:49:58.027Z,1.49
2023-04-10T10:50:58.047Z,1.44
2023-04-10T10:51:58.086Z,1.43
2023-04-10T10:52:58.109Z,1.37
2023-04-10T10:53:58.139Z,1.44
2023-04-10T10:54:59.840Z,1.43
2023-04-10T10:55:58.236Z,1.47
2023-04-10T10:56:58.239Z,1.45
2023-04-10T10:57:58.269Z,1.45
2023-04-10T10:58:58.307Z,1.40
2023-04-10T10:59:58.329Z,1.37
2023-04-10T11:00:58.407Z,1.40
2023-04-10T11:01:58.463Z,1.37
2023-04-10T11:02:58.658Z,1.39
2023-04-10T11:03:58.590Z,1.38
2023-04-10T11:04:58.490Z,1.38
2023-04-10T11:05:58.539Z,1.36
2023-04-10T11:06:58.554Z,1.35
2023-04-10T11:07:58.630Z,1.40
2023-04-10T11:08:58.659Z,1.39
2023-04-10T11:09:58.693Z,1.37
2023-04-10T11:10:58.709Z,1.36
2023-04-10T11:11:58.748Z,1.34
2023-04-10T11:12:58.894Z,1.37
2023-04-10T11:13:58.866Z,1.35
2023-04-10T11:14:58.901Z,1.34
2023-04-10T11:15:58.923Z,1.35
2023-04-10T11:16:59.006Z,1.35
2023-04-10T11:17:59.020Z,1.38
2023-04-10T11:19:10.484Z,1.33
2023-04-10T11:20:00.003Z,1.33
2023-04-10T11:20:58.988Z,1.34
2023-04-10T11:21:59.000Z,1.34
2023-04-10T11:22:58.971Z,1.36
2023-04-10T11:23:59.013Z,1.41
2023-04-10T11:24:59.050Z,1.46
2023-04-10T11:25:58.954Z,1.49
2023-04-10T11:26:58.962Z,1.46
2023-04-10T11:27:58.963Z,1.40
2023-04-10T11:28:58.935Z,1.36
2023-04-10T11:29:58.947Z,1.43
2023-04-10T11:30:58.926Z,1.45
2023-04-10T11:31:59.169Z,1.41
2023-04-10T11:32:59.072Z,1.44
2023-04-10T11:33:59.005Z,1.44
2023-04-10T11:34:59.043Z,1.40
2023-04-10T11:35:59.122Z,1.47
2023-04-10T11:36:59.120Z,1.42
2023-04-10T11:37:59.165Z,1.45
2023-04-10T11:38:59.217Z,1.41
2023-04-10T11:39:59.275Z,1.49
2023-04-10T11:40:59.315Z,1.46
2023-04-10T11:41:59.365Z,1.47
2023-04-10T11:42:59.429Z,1.40
2023-04-10T11:43:59.470Z,1.47
2023-04-10T11:44:59.516Z,1.42
2023-04-10T11:45:59.602Z,1.46
2023-04-10T11:46:59.639Z,1.52
2023-04-10T11:47:59.732Z,1.47
2023-04-10T11:48:59.722Z,1.50
2023-04-10T11:49:59.769Z,1.50
2023-04-10T11:50:59.842Z,1.46
2023-04-10T11:51:59.882Z,1.42
2023-04-10T11:52:59.950Z,1.51
2023-04-10T11:53:59.997Z,1.40
2023-04-10T11:55:00.042Z,1.39
2023-04-10T11:56:00.151Z,1.40
2023-04-10T11:57:00.214Z,1.38
2023-04-10T11:58:00.223Z,1.41
2023-04-10T11:59:00.275Z,1.42
2023-04-10T12:00:00.345Z,1.37
2023-04-10T12:01:00.402Z,1.45
2023-04-10T12:02:00.474Z,1.43
2023-04-10T12:03:00.789Z,1.45
2023-04-10T12:04:00.648Z,1.36
2023-04-10T12:05:00.674Z,1.36
2023-04-10T12:06:00.648Z,1.39
2023-04-10T12:07:00.707Z,1.42
2023-04-10T12:08:00.765Z,1.55
2023-04-10T12:09:00.828Z,1.49
2023-04-10T12:10:00.917Z,1.33
2023-04-10T12:11:00.925Z,1.38
2023-04-10T12:12:00.996Z,1.38
2023-04-10T12:13:01.051Z,1.37
2023-04-10T12:14:01.119Z,1.36
2023-04-10T12:15:01.173Z,1.40
2023-04-10T12:16:01.300Z,1.38
2023-04-10T12:17:01.298Z,1.34
2023-04-10T12:18:01.414Z,1.44
2023-04-10T12:19:01.421Z,1.50
2023-04-10T12:20:01.484Z,1.50
2023-04-10T12:21:01.539Z,1.39
2023-04-10T12:22:01.641Z,1.36
2023-04-10T12:23:01.676Z,1.39
2023-04-10T12:24:01.755Z,1.50
2023-04-10T12:25:01.789Z,1.48
2023-04-10T12:26:01.854Z,1.39
2023-04-10T12:27:01.904Z,1.53
2023-04-10T12:28:01.992Z,1.46
2023-04-10T12:29:02.045Z,1.41
2023-04-10T12:30:02.112Z,1.51
2023-04-10T12:31:02.173Z,1.52
2023-04-10T12:32:02.226Z,1.60
2023-04-10T12:33:02.339Z,1.57
2023-04-10T12:34:02.394Z,1.58
2023-04-10T12:35:02.412Z,1.61
2023-04-10T12:36:02.461Z,1.69
2023-04-10T12:37:02.481Z,1.68
2023-04-10T12:38:02.522Z,1.73
2023-04-10T12:39:02.563Z,1.73
2023-04-10T12:40:02.642Z,1.66
2023-04-10T12:41:02.645Z,1.72
2023-04-10T12:42:02.720Z,1.64
2023-04-10T12:43:02.745Z,1.64
2023-04-10T12:44:02.799Z,1.69
2023-04-10T12:45:02.828Z,1.66
2023-04-10T12:46:02.857Z,1.61
2023-04-10T12:47:02.850Z,1.44
2023-04-10T12:48:02.934Z,1.44
2023-04-10T12:49:02.936Z,1.60
2023-04-10T12:50:02.969Z,1.54
2023-04-10T12:51:02.970Z,1.43
2023-04-10T12:52:03.014Z,1.43
2023-04-10T12:53:03.038Z,1.47
2023-04-10T12:54:03.099Z,1.36
2023-04-10T12:55:03.102Z,1.37
2023-04-10T12:56:03.170Z,1.34
2023-04-10T12:57:03.181Z,1.43
2023-04-10T12:58:03.214Z,1.36
2023-04-10T12:59:03.234Z,1.29
2023-04-10T13:00:03.260Z,1.18
2023-04-10T13:01:03.255Z,1.16
2023-04-10T13:02:03.519Z,1.16
2023-04-10T13:03:03.423Z,1.16
2023-04-10T13:04:03.312Z,1.04
2023-04-10T13:05:03.303Z,1.05
2023-04-10T13:06:03.283Z,1.04
2023-04-10T13:07:03.253Z,1.09
2023-04-10T13:08:03.268Z,1.09
2023-04-10T13:09:03.257Z,1.12
2023-04-10T13:10:03.279Z,0.94
2023-04-10T13:11:03.259Z,0.99
2023-04-10T13:12:03.259Z,0.98
2023-04-10T13:13:03.260Z,0.89
2023-04-10T13:14:03.245Z,0.86
2023-04-10T13:15:03.315Z,0.78
2023-04-10T13:16:03.335Z,0.74
2023-04-10T13:17:03.248Z,0.64
2023-04-10T13:18:05.806Z,0.68
2023-04-10T13:19:03.244Z,0.76